sensor_id;sensor_type;location;lat;lon;timestamp;temperature;humidity
16315;DHT22;8266;52.150;4.768;2022-11-24T00:00:48;11.10;99.90
16315;DHT22;8266;52.150;4.768;2022-11-24T00:03:15;11.10;99.90
16315;DHT22;8266;52.150;4.768;2022-11-24T00:05:42;11.00;99.90
16315;DHT22;8266;52.150;4.768;2022-11-24T00:08:11;11.10;99.90
16315;DHT22;8266;52.150;4.768;2022-11-24T00:10:38;11.00;99.90
16315;DHT22;8266;52.150;4.768;2022-11-24T00:13:05;11.00;99.90
16315;DHT22;8266;52.150;4.768;2022-11-24T00:15:32;10.90;99.90
16315;DHT22;8266;52.150;4.768;2022-11-24T00:17:59;11.00;99.90
16315;DHT22;8266;52.150;4.768;2022-11-24T00:20:26;10.90;99.90
16315;DHT22;8266;52.150;4.768;2022-11-24T00:22:53;10.90;99.90
16315;DHT22;8266;52.150;4.768;2022-11-24T00:25:21;10.90;99.90
16315;DHT22;8266;52.150;4.768;2022-11-24T00:27:48;10.90;99.90
16315;DHT22;8266;52.150;4.768;2022-11-24T00:30:15;10.90;99.90
16315;DHT22;8266;52.150;4.768;2022-11-24T00:32:42;10.90;99.90
16315;DHT22;8266;52.150;4.768;2022-11-24T00:35:09;10.90;99.90
16315;DHT22;8266;52.150;4.768;2022-11-24T00:37:37;11.00;99.90
16315;DHT22;8266;52.150;4.768;2022-11-24T00:40:04;11.00;99.90
16315;DHT22;8266;52.150;4.768;2022-11-24T00:42:33;10.90;99.90
16315;DHT22;8266;52.150;4.768;2022-11-24T00:45:00;10.90;99.90
16315;DHT22;8266;52.150;4.768;2022-11-24T00:47:27;10.90;99.90
16315;DHT22;8266;52.150;4.768;2022-11-24T00:49:57;10.90;99.90
16315;DHT22;8266;52.150;4.768;2022-11-24T00:52:24;11.00;99.90
16315;DHT22;8266;52.150;4.768;2022-11-24T00:54:51;10.90;99.90
16315;DHT22;8266;52.150;4.768;2022-11-24T00:57:18;11.00;99.90
16315;DHT22;8266;52.150;4.768;2022-11-24T00:59:46;10.90;99.90
16315;DHT22;8266;52.150;4.768;2022-11-24T01:02:13;10.90;99.90
16315;DHT22;8266;52.150;4.768;2022-11-24T01:04:40;11.00;99.90
16315;DHT22;8266;52.150;4.768;2022-11-24T01:07:07;10.90;99.90
16315;DHT22;8266;52.150;4.768;2022-11-24T01:09:34;10.90;99.90
16315;DHT22;8266;52.150;4.768;2022-11-24T01:12:02;10.90;99.90
16315;DHT22;8266;52.150;4.768;2022-11-24T01:14:30;10.80;99.90
16315;DHT22;8266;52.150;4.768;2022-11-24T01:16:58;10.80;99.90
16315;DHT22;8266;52.150;4.768;2022-11-24T01:19:25;10.80;99.90
16315;DHT22;8266;52.150;4.768;2022-11-24T01:21:52;10.80;99.90
16315;DHT22;8266;52.150;4.768;2022-11-24T01:24:19;10.80;99.90
16315;DHT22;8266;52.150;4.768;2022-11-24T01:26:46;10.80;99.90
16315;DHT22;8266;52.150;4.768;2022-11-24T01:29:13;10.80;99.90
16315;DHT22;8266;52.150;4.768;2022-11-24T01:31:40;10.70;99.90
16315;DHT22;8266;52.150;4.768;2022-11-24T01:34:09;10.80;99.90
16315;DHT22;8266;52.150;4.768;2022-11-24T01:36:37;10.80;99.90
16315;DHT22;8266;52.150;4.768;2022-11-24T01:39:04;10.80;99.90
16315;DHT22;8266;52.150;4.768;2022-11-24T01:41:33;10.80;99.90
16315;DHT22;8266;52.150;4.768;2022-11-24T01:44:00;10.70;99.90
16315;DHT22;8266;52.150;4.768;2022-11-24T01:46:29;10.80;99.90
16315;DHT22;8266;52.150;4.768;2022-11-24T01:49:03;10.80;99.90
16315;DHT22;8266;52.150;4.768;2022-11-24T01:51:34;10.70;99.90
16315;DHT22;8266;52.150;4.768;2022-11-24T01:54:06;10.80;99.90
16315;DHT22;8266;52.150;4.768;2022-11-24T01:56:37;10.70;99.90
16315;DHT22;8266;52.150;4.768;2022-11-24T01:59:06;10.70;99.90
16315;DHT22;8266;52.150;4.768;2022-11-24T02:01:36;10.70;99.90
16315;DHT22;8266;52.150;4.768;2022-11-24T02:04:07;10.70;99.90
16315;DHT22;8266;52.150;4.768;2022-11-24T02:06:38;10.70;99.90
16315;DHT22;8266;52.150;4.768;2022-11-24T02:09:12;10.70;99.90
16315;DHT22;8266;52.150;4.768;2022-11-24T02:11:42;10.70;99.90
16315;DHT22;8266;52.150;4.768;2022-11-24T02:14:11;10.70;99.90
16315;DHT22;8266;52.150;4.768;2022-11-24T02:16:40;10.70;99.90
16315;DHT22;8266;52.150;4.768;2022-11-24T02:19:15;10.70;99.90
16315;DHT22;8266;52.150;4.768;2022-11-24T02:21:45;10.70;99.90
16315;DHT22;8266;52.150;4.768;2022-11-24T02:24:19;10.70;99.90
16315;DHT22;8266;52.150;4.768;2022-11-24T02:26:51;10.70;99.90
16315;DHT22;8266;52.150;4.768;2022-11-24T02:29:18;10.70;99.90
16315;DHT22;8266;52.150;4.768;2022-11-24T02:31:48;10.70;99.90
16315;DHT22;8266;52.150;4.768;2022-11-24T02:34:17;10.70;99.90
16315;DHT22;8266;52.150;4.768;2022-11-24T02:36:44;10.80;99.90
16315;DHT22;8266;52.150;4.768;2022-11-24T02:39:12;10.80;99.90
16315;DHT22;8266;52.150;4.768;2022-11-24T02:41:42;10.70;99.90
16315;DHT22;8266;52.150;4.768;2022-11-24T02:44:12;10.80;99.90
16315;DHT22;8266;52.150;4.768;2022-11-24T02:46:40;10.80;99.90
16315;DHT22;8266;52.150;4.768;2022-11-24T02:49:07;10.70;99.90
16315;DHT22;8266;52.150;4.768;2022-11-24T02:51:33;10.70;99.90
16315;DHT22;8266;52.150;4.768;2022-11-24T02:54:00;10.80;99.90
16315;DHT22;8266;52.150;4.768;2022-11-24T02:56:27;10.70;99.90
16315;DHT22;8266;52.150;4.768;2022-11-24T02:58:54;10.70;99.90
16315;DHT22;8266;52.150;4.768;2022-11-24T03:01:23;10.80;99.90
16315;DHT22;8266;52.150;4.768;2022-11-24T03:03:50;10.80;99.90
16315;DHT22;8266;52.150;4.768;2022-11-24T03:06:17;10.80;99.90
16315;DHT22;8266;52.150;4.768;2022-11-24T03:08:44;10.80;99.90
16315;DHT22;8266;52.150;4.768;2022-11-24T03:11:10;10.70;99.90
16315;DHT22;8266;52.150;4.768;2022-11-24T03:13:37;10.60;99.90
16315;DHT22;8266;52.150;4.768;2022-11-24T03:16:07;10.70;99.90
16315;DHT22;8266;52.150;4.768;2022-11-24T03:18:35;10.70;99.90
16315;DHT22;8266;52.150;4.768;2022-11-24T03:21:02;10.70;99.90
16315;DHT22;8266;52.150;4.768;2022-11-24T03:23:29;10.70;99.90
16315;DHT22;8266;52.150;4.768;2022-11-24T03:26:06;10.80;99.90
16315;DHT22;8266;52.150;4.768;2022-11-24T03:28:33;10.70;99.90
16315;DHT22;8266;52.150;4.768;2022-11-24T03:31:00;10.70;99.90
16315;DHT22;8266;52.150;4.768;2022-11-24T03:33:27;10.60;99.90
16315;DHT22;8266;52.150;4.768;2022-11-24T03:35:56;10.70;99.90
16315;DHT22;8266;52.150;4.768;2022-11-24T03:38:23;10.70;99.90
16315;DHT22;8266;52.150;4.768;2022-11-24T03:40:50;10.70;99.90
16315;DHT22;8266;52.150;4.768;2022-11-24T03:43:18;10.70;99.90
16315;DHT22;8266;52.150;4.768;2022-11-24T03:45:46;10.70;99.90
16315;DHT22;8266;52.150;4.768;2022-11-24T03:48:14;10.70;99.90
16315;DHT22;8266;52.150;4.768;2022-11-24T03:50:41;10.70;99.90
16315;DHT22;8266;52.150;4.768;2022-11-24T03:53:09;10.70;99.90
16315;DHT22;8266;52.150;4.768;2022-11-24T03:55:36;10.80;99.90
16315;DHT22;8266;52.150;4.768;2022-11-24T03:58:03;10.80;99.90
16315;DHT22;8266;52.150;4.768;2022-11-24T04:00:30;10.80;99.90
16315;DHT22;8266;52.150;4.768;2022-11-24T04:02:57;10.80;99.90
16315;DHT22;8266;52.150;4.768;2022-11-24T04:05:24;10.90;99.90
16315;DHT22;8266;52.150;4.768;2022-11-24T04:07:54;10.80;99.90
16315;DHT22;8266;52.150;4.768;2022-11-24T04:10:23;11.00;99.90
16315;DHT22;8266;52.150;4.768;2022-11-24T04:12:50;10.90;99.90
16315;DHT22;8266;52.150;4.768;2022-11-24T04:15:17;10.90;99.90
16315;DHT22;8266;52.150;4.768;2022-11-24T04:17:47;10.90;99.90
16315;DHT22;8266;52.150;4.768;2022-11-24T04:20:14;10.90;99.90
16315;DHT22;8266;52.150;4.768;2022-11-24T04:22:42;11.00;99.90
16315;DHT22;8266;52.150;4.768;2022-11-24T04:25:09;11.00;99.90
16315;DHT22;8266;52.150;4.768;2022-11-24T04:27:38;11.00;99.90
16315;DHT22;8266;52.150;4.768;2022-11-24T04:30:06;11.10;99.90
16315;DHT22;8266;52.150;4.768;2022-11-24T04:32:33;11.10;99.90
16315;DHT22;8266;52.150;4.768;2022-11-24T04:35:00;11.10;99.90
16315;DHT22;8266;52.150;4.768;2022-11-24T04:37:27;11.10;99.90
16315;DHT22;8266;52.150;4.768;2022-11-24T04:39:54;11.20;99.90
16315;DHT22;8266;52.150;4.768;2022-11-24T04:42:21;11.10;99.90
16315;DHT22;8266;52.150;4.768;2022-11-24T04:44:50;11.20;99.90
16315;DHT22;8266;52.150;4.768;2022-11-24T04:47:19;11.20;99.90
16315;DHT22;8266;52.150;4.768;2022-11-24T04:49:47;11.10;99.90
16315;DHT22;8266;52.150;4.768;2022-11-24T04:52:15;11.10;99.90
16315;DHT22;8266;52.150;4.768;2022-11-24T04:54:44;11.10;99.90
16315;DHT22;8266;52.150;4.768;2022-11-24T04:57:14;11.00;99.90
16315;DHT22;8266;52.150;4.768;2022-11-24T04:59:42;11.00;99.90
16315;DHT22;8266;52.150;4.768;2022-11-24T05:02:10;11.00;99.90
16315;DHT22;8266;52.150;4.768;2022-11-24T05:04:37;10.90;99.90
16315;DHT22;8266;52.150;4.768;2022-11-24T05:07:05;10.80;99.90
16315;DHT22;8266;52.150;4.768;2022-11-24T05:09:32;10.80;99.90
16315;DHT22;8266;52.150;4.768;2022-11-24T05:11:59;10.70;99.90
16315;DHT22;8266;52.150;4.768;2022-11-24T05:14:27;10.70;99.90
16315;DHT22;8266;52.150;4.768;2022-11-24T05:16:54;10.70;99.90
16315;DHT22;8266;52.150;4.768;2022-11-24T05:19:22;10.60;99.90
16315;DHT22;8266;52.150;4.768;2022-11-24T05:21:49;10.60;99.90
16315;DHT22;8266;52.150;4.768;2022-11-24T05:24:16;10.50;99.90
16315;DHT22;8266;52.150;4.768;2022-11-24T05:26:43;10.50;99.90
16315;DHT22;8266;52.150;4.768;2022-11-24T05:29:10;10.50;99.90
16315;DHT22;8266;52.150;4.768;2022-11-24T05:31:37;10.50;99.90
16315;DHT22;8266;52.150;4.768;2022-11-24T05:34:04;10.50;99.90
16315;DHT22;8266;52.150;4.768;2022-11-24T05:36:33;10.50;99.90
16315;DHT22;8266;52.150;4.768;2022-11-24T05:39:18;10.50;99.90
16315;DHT22;8266;52.150;4.768;2022-11-24T05:41:45;10.40;99.90
16315;DHT22;8266;52.150;4.768;2022-11-24T05:44:12;10.40;99.90
16315;DHT22;8266;52.150;4.768;2022-11-24T05:46:39;10.40;99.90
16315;DHT22;8266;52.150;4.768;2022-11-24T05:49:06;10.40;99.90
16315;DHT22;8266;52.150;4.768;2022-11-24T05:51:35;10.40;99.90
16315;DHT22;8266;52.150;4.768;2022-11-24T05:54:02;10.40;99.90
16315;DHT22;8266;52.150;4.768;2022-11-24T05:56:29;10.40;99.90
16315;DHT22;8266;52.150;4.768;2022-11-24T05:58:56;10.40;99.90
16315;DHT22;8266;52.150;4.768;2022-11-24T06:01:23;10.40;99.90
16315;DHT22;8266;52.150;4.768;2022-11-24T06:03:51;10.40;99.90
16315;DHT22;8266;52.150;4.768;2022-11-24T06:06:19;10.50;99.90
16315;DHT22;8266;52.150;4.768;2022-11-24T06:08:48;10.40;99.90
16315;DHT22;8266;52.150;4.768;2022-11-24T06:11:15;10.40;99.90
16315;DHT22;8266;52.150;4.768;2022-11-24T06:14:01;10.40;99.90
16315;DHT22;8266;52.150;4.768;2022-11-24T06:16:28;10.40;99.90
16315;DHT22;8266;52.150;4.768;2022-11-24T06:18:59;10.40;99.90
16315;DHT22;8266;52.150;4.768;2022-11-24T06:21:32;10.40;99.90
16315;DHT22;8266;52.150;4.768;2022-11-24T06:24:01;10.40;99.90
16315;DHT22;8266;52.150;4.768;2022-11-24T06:26:30;10.40;99.90
16315;DHT22;8266;52.150;4.768;2022-11-24T06:28:59;10.40;99.90
16315;DHT22;8266;52.150;4.768;2022-11-24T06:31:26;10.40;99.90
16315;DHT22;8266;52.150;4.768;2022-11-24T06:33:53;10.40;99.90
16315;DHT22;8266;52.150;4.768;2022-11-24T06:36:20;10.50;99.90
16315;DHT22;8266;52.150;4.768;2022-11-24T06:38:47;10.40;99.90
16315;DHT22;8266;52.150;4.768;2022-11-24T06:41:16;10.50;99.90
16315;DHT22;8266;52.150;4.768;2022-11-24T06:43:44;10.50;99.90
16315;DHT22;8266;52.150;4.768;2022-11-24T06:46:13;10.50;99.90
16315;DHT22;8266;52.150;4.768;2022-11-24T06:48:40;10.50;99.90
16315;DHT22;8266;52.150;4.768;2022-11-24T06:51:09;10.40;99.90
16315;DHT22;8266;52.150;4.768;2022-11-24T06:53:38;10.60;99.90
16315;DHT22;8266;52.150;4.768;2022-11-24T06:56:07;10.50;99.90
16315;DHT22;8266;52.150;4.768;2022-11-24T06:58:39;10.50;99.90
16315;DHT22;8266;52.150;4.768;2022-11-24T07:01:06;10.50;99.90
16315;DHT22;8266;52.150;4.768;2022-11-24T07:03:33;10.50;99.90
16315;DHT22;8266;52.150;4.768;2022-11-24T07:06:00;10.50;99.90
16315;DHT22;8266;52.150;4.768;2022-11-24T07:08:28;10.50;99.90
16315;DHT22;8266;52.150;4.768;2022-11-24T07:10:55;10.50;99.90
16315;DHT22;8266;52.150;4.768;2022-11-24T07:13:22;10.60;99.90
16315;DHT22;8266;52.150;4.768;2022-11-24T07:15:51;10.50;99.90
16315;DHT22;8266;52.150;4.768;2022-11-24T07:18:18;10.50;99.90
16315;DHT22;8266;52.150;4.768;2022-11-24T07:20:45;10.40;99.90
16315;DHT22;8266;52.150;4.768;2022-11-24T07:23:12;10.40;99.90
16315;DHT22;8266;52.150;4.768;2022-11-24T07:25:39;10.50;99.90
16315;DHT22;8266;52.150;4.768;2022-11-24T07:28:06;10.50;99.90
16315;DHT22;8266;52.150;4.768;2022-11-24T07:30:33;10.50;99.90
16315;DHT22;8266;52.150;4.768;2022-11-24T07:33:02;10.60;99.90
16315;DHT22;8266;52.150;4.768;2022-11-24T07:35:29;10.50;99.90
16315;DHT22;8266;52.150;4.768;2022-11-24T07:37:57;10.50;99.90
16315;DHT22;8266;52.150;4.768;2022-11-24T07:40:25;10.60;99.90
16315;DHT22;8266;52.150;4.768;2022-11-24T07:42:53;10.60;99.90
16315;DHT22;8266;52.150;4.768;2022-11-24T07:45:20;10.60;99.90
16315;DHT22;8266;52.150;4.768;2022-11-24T07:47:47;10.70;99.90
16315;DHT22;8266;52.150;4.768;2022-11-24T07:50:16;10.60;99.90
16315;DHT22;8266;52.150;4.768;2022-11-24T07:52:43;10.60;99.90
16315;DHT22;8266;52.150;4.768;2022-11-24T07:55:10;10.60;99.90
16315;DHT22;8266;52.150;4.768;2022-11-24T07:57:37;10.60;99.90
16315;DHT22;8266;52.150;4.768;2022-11-24T08:00:06;10.50;99.90
16315;DHT22;8266;52.150;4.768;2022-11-24T08:02:33;10.50;99.90
16315;DHT22;8266;52.150;4.768;2022-11-24T08:05:00;10.60;99.90
16315;DHT22;8266;52.150;4.768;2022-11-24T08:07:29;10.60;99.90
16315;DHT22;8266;52.150;4.768;2022-11-24T08:09:55;10.60;99.90
16315;DHT22;8266;52.150;4.768;2022-11-24T08:12:22;10.60;99.90
16315;DHT22;8266;52.150;4.768;2022-11-24T08:14:50;10.60;99.90
16315;DHT22;8266;52.150;4.768;2022-11-24T08:17:17;10.70;99.90
16315;DHT22;8266;52.150;4.768;2022-11-24T08:19:44;10.50;99.90
16315;DHT22;8266;52.150;4.768;2022-11-24T08:22:11;10.60;99.90
16315;DHT22;8266;52.150;4.768;2022-11-24T08:24:39;10.60;99.90
16315;DHT22;8266;52.150;4.768;2022-11-24T08:27:11;10.60;99.90
16315;DHT22;8266;52.150;4.768;2022-11-24T08:29:38;10.60;99.90
16315;DHT22;8266;52.150;4.768;2022-11-24T08:32:06;10.60;99.90
16315;DHT22;8266;52.150;4.768;2022-11-24T08:34:33;10.70;99.90
16315;DHT22;8266;52.150;4.768;2022-11-24T08:37:01;10.90;99.90
16315;DHT22;8266;52.150;4.768;2022-11-24T08:39:28;11.00;99.90
16315;DHT22;8266;52.150;4.768;2022-11-24T08:41:57;11.10;99.90
16315;DHT22;8266;52.150;4.768;2022-11-24T08:44:25;11.30;99.90
16315;DHT22;8266;52.150;4.768;2022-11-24T08:46:53;11.40;99.90
16315;DHT22;8266;52.150;4.768;2022-11-24T08:49:20;11.50;99.90
16315;DHT22;8266;52.150;4.768;2022-11-24T08:51:47;11.50;99.90
16315;DHT22;8266;52.150;4.768;2022-11-24T08:54:16;11.60;99.90
16315;DHT22;8266;52.150;4.768;2022-11-24T08:56:45;11.70;99.90
16315;DHT22;8266;52.150;4.768;2022-11-24T08:59:14;11.90;99.90
16315;DHT22;8266;52.150;4.768;2022-11-24T09:01:41;12.10;99.90
16315;DHT22;8266;52.150;4.768;2022-11-24T09:04:08;12.30;99.90
16315;DHT22;8266;52.150;4.768;2022-11-24T09:06:35;12.50;99.90
16315;DHT22;8266;52.150;4.768;2022-11-24T09:09:01;12.70;99.90
16315;DHT22;8266;52.150;4.768;2022-11-24T09:11:29;12.90;99.90
16315;DHT22;8266;52.150;4.768;2022-11-24T09:13:56;13.20;99.90
16315;DHT22;8266;52.150;4.768;2022-11-24T09:16:26;13.30;99.90
16315;DHT22;8266;52.150;4.768;2022-11-24T09:18:54;13.60;99.90
16315;DHT22;8266;52.150;4.768;2022-11-24T09:21:22;13.70;99.90
16315;DHT22;8266;52.150;4.768;2022-11-24T09:23:50;13.80;99.90
16315;DHT22;8266;52.150;4.768;2022-11-24T09:26:19;14.00;99.90
16315;DHT22;8266;52.150;4.768;2022-11-24T09:28:46;14.10;99.90
16315;DHT22;8266;52.150;4.768;2022-11-24T09:31:15;14.20;99.90
16315;DHT22;8266;52.150;4.768;2022-11-24T09:33:44;14.30;99.90
16315;DHT22;8266;52.150;4.768;2022-11-24T09:36:12;14.30;99.90
16315;DHT22;8266;52.150;4.768;2022-11-24T09:38:40;14.30;99.90
16315;DHT22;8266;52.150;4.768;2022-11-24T09:41:22;14.30;99.90
16315;DHT22;8266;52.150;4.768;2022-11-24T09:43:59;14.40;99.90
16315;DHT22;8266;52.150;4.768;2022-11-24T09:46:31;14.50;99.90
16315;DHT22;8266;52.150;4.768;2022-11-24T09:49:00;14.60;99.90
16315;DHT22;8266;52.150;4.768;2022-11-24T09:51:31;14.70;99.90
16315;DHT22;8266;52.150;4.768;2022-11-24T09:54:05;14.90;99.90
16315;DHT22;8266;52.150;4.768;2022-11-24T09:56:36;15.00;99.90
16315;DHT22;8266;52.150;4.768;2022-11-24T09:59:12;15.00;99.90
16315;DHT22;8266;52.150;4.768;2022-11-24T10:01:41;15.00;99.90
16315;DHT22;8266;52.150;4.768;2022-11-24T10:04:14;15.00;99.90
16315;DHT22;8266;52.150;4.768;2022-11-24T10:06:47;15.00;99.90
16315;DHT22;8266;52.150;4.768;2022-11-24T10:09:27;14.90;99.90
16315;DHT22;8266;52.150;4.768;2022-11-24T10:12:00;14.90;99.90
16315;DHT22;8266;52.150;4.768;2022-11-24T10:14:48;14.80;99.90
16315;DHT22;8266;52.150;4.768;2022-11-24T10:17:29;14.70;99.90
16315;DHT22;8266;52.150;4.768;2022-11-24T10:20:04;14.70;99.90
16315;DHT22;8266;52.150;4.768;2022-11-24T10:22:44;14.50;99.90
16315;DHT22;8266;52.150;4.768;2022-11-24T10:25:20;14.50;99.90
16315;DHT22;8266;52.150;4.768;2022-11-24T10:27:55;14.30;99.90
16315;DHT22;8266;52.150;4.768;2022-11-24T10:30:25;14.30;99.90
16315;DHT22;8266;52.150;4.768;2022-11-24T10:32:56;14.20;99.90
16315;DHT22;8266;52.150;4.768;2022-11-24T10:35:28;14.10;99.90
16315;DHT22;8266;52.150;4.768;2022-11-24T10:38:06;14.00;99.90
16315;DHT22;8266;52.150;4.768;2022-11-24T10:40:43;14.00;99.90
16315;DHT22;8266;52.150;4.768;2022-11-24T10:43:11;13.90;99.90
16315;DHT22;8266;52.150;4.768;2022-11-24T10:45:39;13.80;99.90
16315;DHT22;8266;52.150;4.768;2022-11-24T10:48:11;13.80;99.90
16315;DHT22;8266;52.150;4.768;2022-11-24T10:50:41;13.80;99.90
16315;DHT22;8266;52.150;4.768;2022-11-24T10:53:15;13.80;99.90
16315;DHT22;8266;52.150;4.768;2022-11-24T10:55:59;13.80;99.90
16315;DHT22;8266;52.150;4.768;2022-11-24T10:58:28;13.70;99.90
16315;DHT22;8266;52.150;4.768;2022-11-24T11:00:58;13.70;99.90
16315;DHT22;8266;52.150;4.768;2022-11-24T11:03:30;13.80;99.90
16315;DHT22;8266;52.150;4.768;2022-11-24T11:06:04;13.80;99.90
16315;DHT22;8266;52.150;4.768;2022-11-24T11:08:36;13.70;99.90
16315;DHT22;8266;52.150;4.768;2022-11-24T11:11:25;13.80;99.90
16315;DHT22;8266;52.150;4.768;2022-11-24T11:13:55;13.70;99.90
16315;DHT22;8266;52.150;4.768;2022-11-24T11:16:25;13.80;99.90
16315;DHT22;8266;52.150;4.768;2022-11-24T11:18:53;13.70;99.90
16315;DHT22;8266;52.150;4.768;2022-11-24T11:21:31;13.80;99.90
16315;DHT22;8266;52.150;4.768;2022-11-24T11:24:03;13.90;99.90
16315;DHT22;8266;52.150;4.768;2022-11-24T11:26:33;13.80;99.90
16315;DHT22;8266;52.150;4.768;2022-11-24T11:29:04;13.80;99.90
16315;DHT22;8266;52.150;4.768;2022-11-24T11:31:39;13.80;99.90
16315;DHT22;8266;52.150;4.768;2022-11-24T11:34:14;13.90;99.90
16315;DHT22;8266;52.150;4.768;2022-11-24T11:36:44;13.90;99.90
16315;DHT22;8266;52.150;4.768;2022-11-24T11:39:28;13.90;99.90
16315;DHT22;8266;52.150;4.768;2022-11-24T11:42:06;13.90;99.90
16315;DHT22;8266;52.150;4.768;2022-11-24T11:44:36;14.00;99.90
16315;DHT22;8266;52.150;4.768;2022-11-24T11:47:17;14.00;99.90
16315;DHT22;8266;52.150;4.768;2022-11-24T11:49:47;14.00;99.90
16315;DHT22;8266;52.150;4.768;2022-11-24T11:52:46;14.00;99.90
16315;DHT22;8266;52.150;4.768;2022-11-24T11:55:32;14.10;99.90
16315;DHT22;8266;52.150;4.768;2022-11-24T11:58:14;14.10;99.90
16315;DHT22;8266;52.150;4.768;2022-11-24T12:00:47;14.10;99.90
16315;DHT22;8266;52.150;4.768;2022-11-24T12:03:41;14.20;99.90
16315;DHT22;8266;52.150;4.768;2022-11-24T12:06:22;14.20;99.90
16315;DHT22;8266;52.150;4.768;2022-11-24T12:08:58;14.30;99.90
16315;DHT22;8266;52.150;4.768;2022-11-24T12:11:36;14.30;99.90
16315;DHT22;8266;52.150;4.768;2022-11-24T12:14:19;14.30;99.90
16315;DHT22;8266;52.150;4.768;2022-11-24T12:16:57;14.30;99.90
16315;DHT22;8266;52.150;4.768;2022-11-24T12:19:50;14.40;99.90
16315;DHT22;8266;52.150;4.768;2022-11-24T12:22:30;14.40;99.90
16315;DHT22;8266;52.150;4.768;2022-11-24T12:25:05;14.40;99.90
16315;DHT22;8266;52.150;4.768;2022-11-24T12:27:47;14.40;99.90
16315;DHT22;8266;52.150;4.768;2022-11-24T12:30:17;14.40;99.90
16315;DHT22;8266;52.150;4.768;2022-11-24T12:33:10;14.50;99.90
16315;DHT22;8266;52.150;4.768;2022-11-24T12:35:47;14.50;99.90
16315;DHT22;8266;52.150;4.768;2022-11-24T12:38:24;14.50;99.90
16315;DHT22;8266;52.150;4.768;2022-11-24T12:41:20;14.50;99.90
16315;DHT22;8266;52.150;4.768;2022-11-24T12:43:51;14.50;99.90
16315;DHT22;8266;52.150;4.768;2022-11-24T12:46:22;14.60;99.90
16315;DHT22;8266;52.150;4.768;2022-11-24T12:49:02;14.60;99.90
16315;DHT22;8266;52.150;4.768;2022-11-24T12:51:33;14.60;99.90
16315;DHT22;8266;52.150;4.768;2022-11-24T12:54:03;14.70;99.90
16315;DHT22;8266;52.150;4.768;2022-11-24T12:56:39;14.60;99.90
16315;DHT22;8266;52.150;4.768;2022-11-24T12:59:17;14.70;99.90
16315;DHT22;8266;52.150;4.768;2022-11-24T13:01:52;14.70;99.90
16315;DHT22;8266;52.150;4.768;2022-11-24T13:04:33;14.70;99.90
16315;DHT22;8266;52.150;4.768;2022-11-24T13:07:04;14.70;99.90
16315;DHT22;8266;52.150;4.768;2022-11-24T13:09:35;14.80;99.90
16315;DHT22;8266;52.150;4.768;2022-11-24T13:12:10;14.80;99.90
16315;DHT22;8266;52.150;4.768;2022-11-24T13:14:40;14.80;99.90
16315;DHT22;8266;52.150;4.768;2022-11-24T13:17:26;14.80;99.90
16315;DHT22;8266;52.150;4.768;2022-11-24T13:20:14;14.90;99.90
16315;DHT22;8266;52.150;4.768;2022-11-24T13:22:45;15.00;99.90
16315;DHT22;8266;52.150;4.768;2022-11-24T13:25:17;15.00;99.90
16315;DHT22;8266;52.150;4.768;2022-11-24T13:27:48;14.90;99.90
16315;DHT22;8266;52.150;4.768;2022-11-24T13:30:54;15.00;99.90
16315;DHT22;8266;52.150;4.768;2022-11-24T13:33:37;15.00;99.90
16315;DHT22;8266;52.150;4.768;2022-11-24T13:39:18;15.00;99.90
16315;DHT22;8266;52.150;4.768;2022-11-24T13:42:06;15.00;99.90
16315;DHT22;8266;52.150;4.768;2022-11-24T13:44:59;15.00;99.90
16315;DHT22;8266;52.150;4.768;2022-11-24T13:47:36;15.00;99.90
16315;DHT22;8266;52.150;4.768;2022-11-24T13:50:07;15.00;99.90
16315;DHT22;8266;52.150;4.768;2022-11-24T13:52:41;14.90;99.90
16315;DHT22;8266;52.150;4.768;2022-11-24T13:55:20;14.80;99.90
16315;DHT22;8266;52.150;4.768;2022-11-24T13:57:50;14.90;99.90
16315;DHT22;8266;52.150;4.768;2022-11-24T14:00:21;14.90;99.90
16315;DHT22;8266;52.150;4.768;2022-11-24T14:02:49;14.90;99.90
16315;DHT22;8266;52.150;4.768;2022-11-24T14:05:21;14.90;99.90
16315;DHT22;8266;52.150;4.768;2022-11-24T14:07:50;14.90;99.90
16315;DHT22;8266;52.150;4.768;2022-11-24T14:10:21;14.90;99.90
16315;DHT22;8266;52.150;4.768;2022-11-24T14:16:01;14.90;99.90
16315;DHT22;8266;52.150;4.768;2022-11-24T14:18:29;14.80;99.90
16315;DHT22;8266;52.150;4.768;2022-11-24T14:20:58;14.80;99.90
16315;DHT22;8266;52.150;4.768;2022-11-24T14:23:25;14.70;99.90
16315;DHT22;8266;52.150;4.768;2022-11-24T14:25:53;14.70;99.90
16315;DHT22;8266;52.150;4.768;2022-11-24T14:28:22;14.60;99.90
16315;DHT22;8266;52.150;4.768;2022-11-24T14:30:50;14.50;99.90
16315;DHT22;8266;52.150;4.768;2022-11-24T14:33:19;14.50;99.90
16315;DHT22;8266;52.150;4.768;2022-11-24T14:35:48;14.50;99.90
16315;DHT22;8266;52.150;4.768;2022-11-24T14:38:16;14.50;99.90
16315;DHT22;8266;52.150;4.768;2022-11-24T14:40:45;14.50;99.90
16315;DHT22;8266;52.150;4.768;2022-11-24T14:43:30;14.50;99.90
16315;DHT22;8266;52.150;4.768;2022-11-24T14:46:07;14.50;99.90
16315;DHT22;8266;52.150;4.768;2022-11-24T14:48:47;14.50;99.90
16315;DHT22;8266;52.150;4.768;2022-11-24T14:51:19;14.50;99.90
16315;DHT22;8266;52.150;4.768;2022-11-24T14:53:49;14.40;99.90
16315;DHT22;8266;52.150;4.768;2022-11-24T14:56:24;14.40;99.90
16315;DHT22;8266;52.150;4.768;2022-11-24T14:58:55;14.30;99.90
16315;DHT22;8266;52.150;4.768;2022-11-24T15:01:31;14.30;99.90
16315;DHT22;8266;52.150;4.768;2022-11-24T15:04:14;14.20;99.90
16315;DHT22;8266;52.150;4.768;2022-11-24T15:06:43;14.10;99.90
16315;DHT22;8266;52.150;4.768;2022-11-24T15:09:28;14.10;99.90
16315;DHT22;8266;52.150;4.768;2022-11-24T15:12:05;14.00;99.90
16315;DHT22;8266;52.150;4.768;2022-11-24T15:14:49;14.00;99.90
16315;DHT22;8266;52.150;4.768;2022-11-24T15:17:22;13.90;99.90
16315;DHT22;8266;52.150;4.768;2022-11-24T15:20:00;13.80;99.90
16315;DHT22;8266;52.150;4.768;2022-11-24T15:22:39;13.80;99.90
16315;DHT22;8266;52.150;4.768;2022-11-24T15:25:28;13.70;99.90
16315;DHT22;8266;52.150;4.768;2022-11-24T15:27:55;13.60;99.90
16315;DHT22;8266;52.150;4.768;2022-11-24T15:30:25;13.50;99.90
16315;DHT22;8266;52.150;4.768;2022-11-24T15:32:55;13.40;99.90
16315;DHT22;8266;52.150;4.768;2022-11-24T15:35:24;13.40;99.90
16315;DHT22;8266;52.150;4.768;2022-11-24T15:37:52;13.30;99.90
16315;DHT22;8266;52.150;4.768;2022-11-24T15:40:19;13.20;99.90
16315;DHT22;8266;52.150;4.768;2022-11-24T15:42:50;13.10;99.90
16315;DHT22;8266;52.150;4.768;2022-11-24T15:45:18;13.00;99.90
16315;DHT22;8266;52.150;4.768;2022-11-24T15:47:45;13.00;99.90
16315;DHT22;8266;52.150;4.768;2022-11-24T15:50:13;12.90;99.90
16315;DHT22;8266;52.150;4.768;2022-11-24T15:52:42;12.90;99.90
16315;DHT22;8266;52.150;4.768;2022-11-24T15:55:16;12.80;99.90
16315;DHT22;8266;52.150;4.768;2022-11-24T15:57:43;12.70;99.90
16315;DHT22;8266;52.150;4.768;2022-11-24T16:00:14;12.70;99.90
16315;DHT22;8266;52.150;4.768;2022-11-24T16:02:41;12.60;99.90
16315;DHT22;8266;52.150;4.768;2022-11-24T16:05:09;12.50;99.90
16315;DHT22;8266;52.150;4.768;2022-11-24T16:07:36;12.60;99.90
16315;DHT22;8266;52.150;4.768;2022-11-24T16:10:06;12.50;99.90
16315;DHT22;8266;52.150;4.768;2022-11-24T16:12:34;12.50;99.90